Time;durP1;ratioP1;P1;durP2;ratioP2;P2;SDS_P1;SDS_P2;PMS_P1;PMS_P2;Temp;Humidity;BMP_temperature;BMP_pressure;BME280_temperature;BME280_humidity;BME280_pressure;Samples;Min_cycle;Max_cycle;Signal;HPM_P1;HPM_P2
2021/03/17 00:00:13;;;;;;;5.97;1.55;;;5.20;99.90;;;;;;5136142;27;20353;-57
2021/03/17 00:02:39;;;;;;;5.10;1.23;;;5.20;99.90;;;;;;5136369;27;20104;-56
2021/03/17 00:05:07;;;;;;;3.50;1.40;;;5.30;99.90;;;;;;5136223;27;20519;-56
2021/03/17 00:07:33;;;;;;;5.20;1.42;;;5.30;99.90;;;;;;5136362;27;20126;-56
2021/03/17 00:09:59;;;;;;;5.25;1.70;;;5.30;99.90;;;;;;5136343;27;20050;-56
2021/03/17 00:12:25;;;;;;;4.13;1.38;;;5.20;99.90;;;;;;5136344;27;20051;-56
2021/03/17 00:14:51;;;;;;;6.13;1.70;;;5.20;99.90;;;;;;5136178;27;20118;-56
2021/03/17 00:17:16;;;;;;;8.05;1.90;;;5.20;99.90;;;;;;5135881;27;20505;-56
2021/03/17 00:19:42;;;;;;;4.75;1.88;;;5.20;99.90;;;;;;5135973;27;20066;-56
2021/03/17 00:22:08;;;;;;;7.78;2.03;;;5.20;99.90;;;;;;5136035;27;20085;-56
2021/03/17 00:24:35;;;;;;;5.72;1.85;;;5.20;99.90;;;;;;5136106;27;20035;-56
2021/03/17 00:27:02;;;;;;;4.10;1.80;;;5.20;99.90;;;;;;5136014;27;20114;-56
2021/03/17 00:29:28;;;;;;;7.45;2.20;;;5.10;99.90;;;;;;5135830;27;20373;-56
2021/03/17 00:31:54;;;;;;;10.90;2.60;;;5.20;99.90;;;;;;5135714;27;20043;-56
2021/03/17 00:34:19;;;;;;;9.20;2.30;;;5.20;99.90;;;;;;5135945;27;20043;-56
2021/03/17 00:36:45;;;;;;;5.80;1.98;;;5.30;99.90;;;;;;5136114;27;20043;-56
2021/03/17 00:39:11;;;;;;;3.65;1.73;;;5.30;99.90;;;;;;5136045;27;20125;-56
2021/03/17 00:41:37;;;;;;;3.85;1.42;;;5.30;99.90;;;;;;5135949;27;20066;-56
2021/03/17 00:44:03;;;;;;;5.88;1.50;;;5.30;99.90;;;;;;5135928;27;20481;-56
2021/03/17 00:46:29;;;;;;;5.07;1.02;;;5.30;99.90;;;;;;5135868;27;20043;-56
2021/03/17 00:48:54;;;;;;;3.63;1.02;;;5.30;99.90;;;;;;5136307;27;20055;-56
2021/03/17 00:51:20;;;;;;;7.90;1.30;;;5.30;99.90;;;;;;5136182;27;20043;-56
2021/03/17 00:53:46;;;;;;;5.60;0.82;;;5.30;99.90;;;;;;5135626;27;20043;-56
2021/03/17 00:56:11;;;;;;;7.18;1.63;;;5.40;99.90;;;;;;5135782;27;20086;-56
2021/03/17 00:58:37;;;;;;;6.18;1.25;;;5.40;99.90;;;;;;5135515;27;20039;-56
2021/03/17 01:01:03;;;;;;;4.50;0.90;;;5.40;99.90;;;;;;5135154;27;20062;-56
2021/03/17 01:03:29;;;;;;;3.72;1.20;;;5.30;99.90;;;;;;5135502;27;20067;-56
2021/03/17 01:05:55;;;;;;;4.05;1.02;;;5.30;99.90;;;;;;5135510;27;20082;-56
2021/03/17 01:08:21;;;;;;;5.97;2.03;;;5.30;99.90;;;;;;5135510;27;20048;-56
2021/03/17 01:10:48;;;;;;;9.48;2.17;;;5.30;99.90;;;;;;5135413;27;20039;-56
2021/03/17 01:13:14;;;;;;;3.92;1.23;;;5.30;99.90;;;;;;5135499;27;20039;-56
2021/03/17 01:15:40;;;;;;;3.78;1.08;;;5.30;99.90;;;;;;5135182;27;20110;-56
2021/03/17 01:18:07;;;;;;;3.08;1.00;;;5.30;99.90;;;;;;5135418;27;20047;-56
2021/03/17 01:20:34;;;;;;;3.80;1.00;;;5.20;99.90;;;;;;5135372;27;20096;-56
2021/03/17 01:23:01;;;;;;;2.60;0.77;;;5.20;99.90;;;;;;5135361;27;20043;-56
2021/03/17 01:25:37;;;;;;;5.90;0.90;;;5.20;99.90;;;;;;5135040;27;20480;-56
2021/03/17 01:28:05;;;;;;;4.68;0.95;;;5.20;99.90;;;;;;5135028;27;20051;-56
2021/03/17 01:30:37;;;;;;;5.57;1.35;;;5.20;99.90;;;;;;5135001;27;20047;-56
2021/03/17 01:33:04;;;;;;;5.30;0.95;;;5.20;99.90;;;;;;5135097;27;20059;-56
2021/03/17 01:35:30;;;;;;;5.93;1.10;;;5.20;99.90;;;;;;5135013;27;20035;-56
2021/03/17 01:37:56;;;;;;;4.00;0.90;;;5.10;99.90;;;;;;5134807;27;20047;-56
2021/03/17 01:40:26;;;;;;;9.65;1.30;;;5.10;99.90;;;;;;5135074;27;20495;-56
2021/03/17 01:42:53;;;;;;;6.35;1.52;;;5.10;99.90;;;;;;5134592;27;20051;-56
2021/03/17 01:45:19;;;;;;;7.03;1.00;;;5.00;99.90;;;;;;5134912;27;20043;-56
2021/03/17 01:47:47;;;;;;;7.22;1.38;;;5.10;99.90;;;;;;5134703;27;20077;-57
2021/03/17 01:50:26;;;;;;;10.07;1.40;;;5.10;99.90;;;;;;5134666;27;20144;-56
2021/03/17 01:52:53;;;;;;;8.30;1.52;;;5.00;99.90;;;;;;5116212;27;20047;-56
2021/03/17 01:55:20;;;;;;;11.57;2.30;;;5.10;99.90;;;;;;5134396;27;20047;-56
2021/03/17 01:57:47;;;;;;;5.88;1.17;;;5.10;99.90;;;;;;5134644;27;20043;-56
2021/03/17 02:00:15;;;;;;;8.88;1.15;;;5.00;99.90;;;;;;5134188;27;20074;-56
2021/03/17 02:02:46;;;;;;;8.27;1.65;;;5.00;99.90;;;;;;5134521;27;20049;-56
2021/03/17 02:05:15;;;;;;;12.57;1.70;;;4.90;99.90;;;;;;5134601;27;20038;-56
2021/03/17 02:07:41;;;;;;;14.65;1.38;;;4.90;99.90;;;;;;5134836;27;20492;-56
2021/03/17 02:10:15;;;;;;;9.88;1.38;;;4.90;99.90;;;;;;5134509;27;20089;-56
2021/03/17 02:13:02;;;;;;;9.65;1.38;;;4.90;99.90;;;;;;5134325;27;20146;-56
2021/03/17 02:15:43;;;;;;;8.98;1.30;;;4.90;99.90;;;;;;5133559;27;20047;-56
2021/03/17 02:18:34;;;;;;;5.38;1.13;;;4.80;99.90;;;;;;5134104;27;20043;-56
2021/03/17 02:21:15;;;;;;;8.80;1.70;;;4.80;99.90;;;;;;5134001;27;20042;-56
2021/03/17 02:23:44;;;;;;;10.63;1.85;;;4.80;99.90;;;;;;5133926;27;20042;-56
2021/03/17 02:26:40;;;;;;;5.97;1.55;;;4.70;99.90;;;;;;5133749;27;20118;-56
2021/03/17 02:29:41;;;;;;;13.88;2.33;;;4.70;99.90;;;;;;5134093;27;20042;-56
2021/03/17 02:32:16;;;;;;;6.18;1.25;;;4.70;99.90;;;;;;5133668;27;20537;-56
2021/03/17 02:34:44;;;;;;;6.32;1.63;;;4.70;99.90;;;;;;5133728;27;20047;-56
2021/03/17 02:37:16;;;;;;;7.82;1.58;;;4.70;99.90;;;;;;5133620;27;20081;-56
2021/03/17 02:39:54;;;;;;;3.70;1.27;;;4.70;99.90;;;;;;5133901;27;20035;-56
2021/03/17 02:42:28;;;;;;;11.27;1.70;;;4.70;99.90;;;;;;5133815;27;20175;-56
2021/03/17 02:45:02;;;;;;;8.45;1.42;;;4.60;99.90;;;;;;5133421;27;20496;-56
2021/03/17 02:47:32;;;;;;;6.65;1.60;;;4.60;99.90;;;;;;5133394;27;20488;-56
2021/03/17 02:50:00;;;;;;;4.97;1.10;;;4.50;99.90;;;;;;5115293;27;20097;-57
2021/03/17 02:52:33;;;;;;;6.28;1.50;;;4.50;99.90;;;;;;5133736;27;20176;-56
2021/03/17 02:55:00;;;;;;;9.07;1.20;;;4.60;99.90;;;;;;5133339;27;20039;-56
2021/03/17 02:57:27;;;;;;;7.60;1.40;;;4.50;99.90;;;;;;5133381;27;20035;-56
2021/03/17 02:59:55;;;;;;;5.18;1.15;;;4.60;99.90;;;;;;5132846;27;20134;-56
2021/03/17 03:02:22;;;;;;;6.05;1.90;;;4.50;99.90;;;;;;5133552;27;20039;-57
2021/03/17 03:04:52;;;;;;;16.90;1.92;;;4.50;99.90;;;;;;5133314;27;20084;-56
2021/03/17 03:07:19;;;;;;;5.13;1.33;;;4.40;99.90;;;;;;5133262;27;20047;-57
2021/03/17 03:09:47;;;;;;;6.80;1.20;;;4.40;99.90;;;;;;5133050;27;20058;-56
2021/03/17 03:12:14;;;;;;;3.45;1.13;;;4.30;99.90;;;;;;5133075;27;20057;-56
2021/03/17 03:14:44;;;;;;;8.80;1.80;;;4.30;99.90;;;;;;5133031;27;20051;-56
2021/03/17 03:17:11;;;;;;;9.02;1.95;;;4.20;99.90;;;;;;5132758;27;20035;-56
2021/03/17 03:19:49;;;;;;;7.55;2.00;;;4.20;99.90;;;;;;5133058;27;20115;-56
2021/03/17 03:22:16;;;;;;;9.07;1.73;;;4.20;99.90;;;;;;5114846;27;20146;-56
2021/03/17 03:24:43;;;;;;;7.20;1.45;;;4.10;99.90;;;;;;5132981;27;20039;-56
2021/03/17 03:27:09;;;;;;;5.82;1.50;;;4.20;99.90;;;;;;5131915;27;20063;-56
2021/03/17 03:29:35;;;;;;;6.72;1.50;;;4.30;99.90;;;;;;5133018;27;20081;-56
2021/03/17 03:32:04;;;;;;;8.52;1.38;;;4.20;99.90;;;;;;5114169;27;20861;-56
2021/03/17 03:34:30;;;;;;;8.15;1.20;;;4.20;99.90;;;;;;5132830;27;20039;-56
2021/03/17 03:36:55;;;;;;;7.28;1.45;;;4.30;99.90;;;;;;5132987;27;20050;-56
2021/03/17 03:39:21;;;;;;;9.20;1.40;;;4.30;99.90;;;;;;5132804;28;20483;-56
2021/03/17 03:41:47;;;;;;;8.45;1.20;;;4.40;99.90;;;;;;5133203;28;20043;-56
2021/03/17 03:44:13;;;;;;;5.88;1.15;;;4.40;99.90;;;;;;5132828;28;20043;-57
2021/03/17 03:46:39;;;;;;;5.68;1.40;;;4.30;99.90;;;;;;5132908;28;20050;-56
2021/03/17 03:49:06;;;;;;;10.88;1.40;;;4.30;99.90;;;;;;5132737;28;20477;-56
2021/03/17 03:51:33;;;;;;;4.25;1.05;;;4.30;99.90;;;;;;5132818;28;20043;-56
2021/03/17 03:54:20;;;;;;;11.50;1.48;;;4.30;99.90;;;;;;5132549;28;20096;-56
2021/03/17 03:56:53;;;;;;;8.32;1.20;;;4.30;99.90;;;;;;5132639;28;20074;-56
2021/03/17 03:59:25;;;;;;;8.13;1.30;;;4.40;99.90;;;;;;5132842;28;20399;-56
2021/03/17 04:02:00;;;;;;;5.18;1.05;;;4.30;99.90;;;;;;5132384;28;20138;-57
2021/03/17 04:04:35;;;;;;;5.18;1.30;;;4.30;99.90;;;;;;5132269;28;20400;-56
2021/03/17 04:07:03;;;;;;;6.85;0.93;;;4.30;99.90;;;;;;5133017;28;20078;-56
2021/03/17 04:09:53;;;;;;;7.72;1.33;;;4.30;99.90;;;;;;5132910;28;20456;-56
2021/03/17 04:12:21;;;;;;;6.97;1.02;;;4.20;99.90;;;;;;5132547;28;20441;-56
2021/03/17 04:14:52;;;;;;;7.35;1.40;;;4.20;99.90;;;;;;5132453;28;20438;-56
2021/03/17 04:17:31;;;;;;;5.28;1.02;;;4.10;99.90;;;;;;5132560;28;20072;-56
2021/03/17 04:20:13;;;;;;;6.15;0.95;;;4.20;99.90;;;;;;5132685;28;20387;-56
2021/03/17 04:22:39;;;;;;;6.43;1.45;;;4.30;99.90;;;;;;5132347;28;20035;-56
2021/03/17 04:25:07;;;;;;;8.82;1.30;;;4.30;99.90;;;;;;5132350;28;20054;-56
2021/03/17 04:27:34;;;;;;;12.15;2.55;;;4.20;99.90;;;;;;5113932;28;20063;-56
2021/03/17 04:30:02;;;;;;;7.30;1.80;;;4.30;99.90;;;;;;5132534;28;20047;-56
2021/03/17 04:32:29;;;;;;;4.60;1.20;;;4.30;99.90;;;;;;5132354;28;20047;-56
2021/03/17 04:34:56;;;;;;;9.88;1.40;;;4.20;99.90;;;;;;5132239;28;20415;-57
2021/03/17 04:37:21;;;;;;;6.93;1.30;;;4.30;99.90;;;;;;5132218;28;20077;-56
2021/03/17 04:39:50;;;;;;;6.50;1.30;;;4.30;99.90;;;;;;5135353;27;20495;-56
2021/03/17 04:42:17;;;;;;;5.30;1.10;;;4.30;99.90;;;;;;5136169;27;20035;-56
2021/03/17 04:44:44;;;;;;;4.78;1.10;;;4.20;99.90;;;;;;5136066;27;20039;-56
2021/03/17 04:47:13;;;;;;;5.10;0.95;;;4.20;99.90;;;;;;5135924;27;20058;-56
2021/03/17 04:49:43;;;;;;;;;;;4.10;99.90;;;;;;5136308;27;20078;-57
2021/03/17 04:52:13;;;;;;;8.32;1.17;;;4.10;99.90;;;;;;5135923;27;19915;-56
2021/03/17 04:54:39;;;;;;;8.45;1.20;;;4.10;99.90;;;;;;5135784;27;20039;-56
2021/03/17 04:57:11;;;;;;;9.98;1.65;;;4.10;99.90;;;;;;5116914;27;20128;-56
2021/03/17 04:59:38;;;;;;;11.45;1.90;;;4.20;99.90;;;;;;5135455;27;20055;-56
2021/03/17 05:02:04;;;;;;;6.93;1.23;;;4.20;99.90;;;;;;5135702;27;20389;-56
2021/03/17 05:04:32;;;;;;;9.27;1.35;;;4.30;99.90;;;;;;5135517;27;20373;-56
2021/03/17 05:06:58;;;;;;;8.82;2.05;;;4.10;99.90;;;;;;5135515;27;20039;-56
2021/03/17 05:09:25;;;;;;;6.82;1.40;;;4.20;99.90;;;;;;5135686;27;20043;-56
2021/03/17 05:11:51;;;;;;;4.47;1.40;;;4.20;99.90;;;;;;5135345;27;20035;-56
2021/03/17 05:14:17;;;;;;;6.15;1.50;;;4.20;99.90;;;;;;5135279;27;20046;-56
2021/03/17 05:16:44;;;;;;;7.65;1.60;;;4.20;99.90;;;;;;5135704;27;20040;-56
2021/03/17 05:19:12;;;;;;;7.30;2.58;;;4.10;99.90;;;;;;5135215;27;20043;-57
2021/03/17 05:21:39;;;;;;;5.70;1.00;;;4.10;99.90;;;;;;5135023;27;20050;-56
2021/03/17 05:24:06;;;;;;;7.25;1.13;;;4.10;99.90;;;;;;5135202;27;20492;-56
2021/03/17 05:26:36;;;;;;;3.67;1.10;;;4.10;99.90;;;;;;5135275;27;20057;-56
2021/03/17 05:29:02;;;;;;;9.18;1.35;;;4.00;99.90;;;;;;5135015;27;20618;-56
2021/03/17 05:31:29;;;;;;;8.30;1.45;;;4.10;99.90;;;;;;5135104;27;20047;-56
2021/03/17 05:33:55;;;;;;;3.78;1.20;;;4.00;99.90;;;;;;5134884;27;20057;-57
2021/03/17 05:36:21;;;;;;;3.67;1.50;;;4.00;99.90;;;;;;5134843;27;20457;-56
2021/03/17 05:38:47;;;;;;;8.80;1.52;;;3.90;99.90;;;;;;5135058;27;20050;-56
2021/03/17 05:41:13;;;;;;;5.40;1.20;;;3.90;99.90;;;;;;5134874;27;20047;-56
2021/03/17 05:43:40;;;;;;;4.40;0.90;;;3.90;99.90;;;;;;5134967;27;20546;-56
2021/03/17 05:46:06;;;;;;;10.02;2.05;;;4.00;99.90;;;;;;5134879;27;20127;-56
2021/03/17 05:48:34;;;;;;;2.92;1.13;;;4.00;99.90;;;;;;5134654;27;20050;-56
2021/03/17 05:51:01;;;;;;;8.50;1.40;;;3.90;99.90;;;;;;5133420;27;20408;-56
2021/03/17 05:53:28;;;;;;;8.82;2.40;;;4.00;99.90;;;;;;5134850;27;20047;-56
2021/03/17 05:56:02;;;;;;;8.63;1.67;;;4.00;99.90;;;;;;5134815;27;20099;-56
2021/03/17 05:58:29;;;;;;;10.13;1.60;;;4.00;99.90;;;;;;5134364;27;20464;-56
2021/03/17 06:00:56;;;;;;;10.70;2.08;;;4.00;99.90;;;;;;5134266;27;20051;-57
2021/03/17 06:03:24;;;;;;;6.35;1.60;;;4.00;99.90;;;;;;5134278;27;20043;-56
2021/03/17 06:05:51;;;;;;;7.80;2.17;;;4.10;99.90;;;;;;5134409;27;20388;-57
2021/03/17 06:08:25;;;;;;;8.40;1.20;;;4.10;99.90;;;;;;5134443;27;20054;-56
2021/03/17 06:10:52;;;;;;;12.07;1.50;;;4.10;99.90;;;;;;5134169;27;20408;-56
2021/03/17 06:13:21;;;;;;;11.65;2.45;;;4.10;99.90;;;;;;5134230;27;20047;-56
2021/03/17 06:15:58;;;;;;;11.27;1.60;;;4.10;99.90;;;;;;5133973;27;20043;-56
2021/03/17 06:18:28;;;;;;;10.27;1.48;;;4.10;99.90;;;;;;5134135;27;20442;-56
2021/03/17 06:20:56;;;;;;;20.02;2.35;;;4.00;99.90;;;;;;5133706;27;20529;-56
2021/03/17 06:23:21;;;;;;;12.00;1.42;;;4.10;99.90;;;;;;5133850;27;20039;-56
2021/03/17 06:25:48;;;;;;;10.70;1.65;;;4.10;99.90;;;;;;5133969;27;20092;-56
2021/03/17 06:28:14;;;;;;;5.72;1.17;;;4.20;99.90;;;;;;5133689;27;20047;-56
2021/03/17 06:30:41;;;;;;;6.82;1.73;;;4.20;99.90;;;;;;5133872;27;20059;-56
2021/03/17 06:33:07;;;;;;;9.45;2.08;;;4.30;99.90;;;;;;5133832;27;20039;-56
2021/03/17 06:35:33;;;;;;;10.35;1.73;;;4.30;99.90;;;;;;5133882;27;20531;-57
2021/03/17 06:37:59;;;;;;;6.28;1.58;;;4.10;99.90;;;;;;5133647;27;20047;-56
2021/03/17 06:40:33;;;;;;;8.65;1.48;;;4.20;99.90;;;;;;5133616;27;20121;-56
2021/03/17 06:43:11;;;;;;;6.75;2.10;;;4.10;99.90;;;;;;5133677;27;20450;-56
2021/03/17 06:45:46;;;;;;;10.40;1.30;;;4.10;99.90;;;;;;5133604;27;20117;-56
2021/03/17 06:48:25;;;;;;;8.88;1.55;;;4.10;99.90;;;;;;5133615;27;20043;-56
2021/03/17 06:51:02;;;;;;;6.95;1.33;;;4.20;99.90;;;;;;5133461;27;20059;-56
2021/03/17 06:53:45;;;;;;;9.85;0.88;;;4.20;99.90;;;;;;5133672;27;20047;-56
2021/03/17 06:56:22;;;;;;;6.18;1.55;;;4.30;99.90;;;;;;5133408;27;20054;-57
2021/03/17 06:58:51;;;;;;;6.88;1.10;;;4.40;99.90;;;;;;5133250;27;20031;-57
2021/03/17 07:01:49;;;;;;;12.98;1.65;;;4.50;99.90;;;;;;5132872;27;20051;-56
2021/03/17 07:04:19;;;;;;;6.97;1.20;;;4.70;99.90;;;;;;5133349;27;20102;-56
2021/03/17 07:07:02;;;;;;;7.13;1.40;;;4.80;99.90;;;;;;5133174;27;20074;-57
2021/03/17 07:09:30;;;;;;;11.75;1.58;;;4.80;99.90;;;;;;5133120;27;20445;-56
2021/03/17 07:12:06;;;;;;;7.38;1.50;;;4.90;99.90;;;;;;5133114;27;20082;-56
2021/03/17 07:14:45;;;;;;;7.35;1.48;;;5.20;99.90;;;;;;5133042;27;20043;-56
2021/03/17 07:17:23;;;;;;;12.43;2.70;;;5.30;99.90;;;;;;5132936;27;20031;-57
2021/03/17 07:19:49;;;;;;;9.95;1.60;;;5.50;99.90;;;;;;5133024;27;20038;-57
2021/03/17 07:22:15;;;;;;;7.97;1.70;;;5.80;99.90;;;;;;5132754;27;20039;-56
2021/03/17 07:24:46;;;;;;;10.90;2.15;;;5.90;99.90;;;;;;5132855;27;20506;-57
2021/03/17 07:27:26;;;;;;;7.78;1.42;;;5.90;99.90;;;;;;5113926;27;20397;-57
2021/03/17 07:29:58;;;;;;;8.90;1.60;;;5.80;99.90;;;;;;5132878;27;20419;-56
2021/03/17 07:32:47;;;;;;;8.32;1.80;;;5.80;99.90;;;;;;5132820;27;20067;-57
2021/03/17 07:35:31;;;;;;;10.77;2.40;;;5.90;99.90;;;;;;5132579;27;20043;-56
2021/03/17 07:38:14;;;;;;;17.13;2.15;;;6.00;99.90;;;;;;5132808;27;20047;-57
2021/03/17 07:40:43;;;;;;;10.10;1.67;;;6.10;99.90;;;;;;5132625;28;20529;-57
2021/03/17 07:43:10;;;;;;;13.77;1.55;;;6.20;99.90;;;;;;5132528;28;20043;-56
2021/03/17 07:45:37;;;;;;;6.72;1.52;;;6.20;99.90;;;;;;5132874;28;20452;-57
2021/03/17 07:48:06;;;;;;;13.07;2.30;;;6.30;99.90;;;;;;5132689;28;20043;-56
2021/03/17 07:50:33;;;;;;;10.83;1.40;;;6.40;99.90;;;;;;5132788;28;20126;-57
2021/03/17 07:53:06;;;;;;;14.95;1.83;;;6.70;99.90;;;;;;5132786;28;20477;-57
2021/03/17 07:55:34;;;;;;;15.48;1.63;;;7.10;99.90;;;;;;5132620;28;20096;-56
2021/03/17 07:58:01;;;;;;;10.55;1.65;;;7.30;99.90;;;;;;5132443;28;20146;-56
2021/03/17 08:00:27;;;;;;;11.10;1.90;;;7.50;99.90;;;;;;5132616;28;20051;-56
2021/03/17 08:02:54;;;;;;;14.38;1.40;;;7.50;99.90;;;;;;5132581;28;20043;-57
2021/03/17 08:05:20;;;;;;;9.38;1.92;;;7.50;99.90;;;;;;5132608;28;20051;-57
2021/03/17 08:07:47;;;;;;;10.27;1.75;;;7.30;99.90;;;;;;5132490;28;20055;-56
2021/03/17 08:10:13;;;;;;;11.25;1.45;;;7.30;99.90;;;;;;5132410;28;20043;-56
2021/03/17 08:12:43;;;;;;;9.95;1.80;;;7.10;99.90;;;;;;5132649;27;20164;-57
2021/03/17 08:15:13;;;;;;;14.13;1.55;;;7.10;99.90;;;;;;5136762;27;20487;-56
2021/03/17 08:17:39;;;;;;;12.13;1.90;;;7.20;99.90;;;;;;5118414;27;20039;-57
2021/03/17 08:20:15;;;;;;;10.90;2.10;;;7.20;99.90;;;;;;5136434;27;20043;-57
2021/03/17 08:22:41;;;;;;;7.85;1.55;;;7.40;99.90;;;;;;5136383;27;20104;-56
2021/03/17 08:25:10;;;;;;;11.93;1.85;;;7.40;99.90;;;;;;5136253;27;20075;-57
2021/03/17 08:27:35;;;;;;;7.87;1.60;;;7.30;99.90;;;;;;5136409;27;20055;-57
2021/03/17 08:30:11;;;;;;;13.15;1.92;;;7.40;99.80;;;;;;5136212;27;20055;-56
2021/03/17 08:32:53;;;;;;;9.45;1.85;;;7.30;99.40;;;;;;5136278;27;20047;-56
2021/03/17 08:35:19;;;;;;;6.15;1.50;;;7.20;99.90;;;;;;5136034;27;20135;-57
2021/03/17 08:37:53;;;;;;;8.73;1.83;;;7.20;99.90;;;;;;5136185;27;20067;-57
2021/03/17 08:40:28;;;;;;;18.58;3.25;;;7.30;99.90;;;;;;5135997;27;20071;-56
2021/03/17 08:42:54;;;;;;;9.77;1.40;;;7.20;99.90;;;;;;5136024;27;20035;-56
2021/03/17 08:45:21;;;;;;;19.65;2.72;;;7.20;99.90;;;;;;5117773;27;20039;-56
2021/03/17 08:47:49;;;;;;;6.13;1.70;;;7.20;99.90;;;;;;5135697;27;20499;-56
2021/03/17 08:50:14;;;;;;;9.30;1.90;;;7.20;99.90;;;;;;5135089;27;20622;-56
2021/03/17 08:52:48;;;;;;;9.20;1.40;;;7.30;99.90;;;;;;5135547;27;20126;-56
2021/03/17 08:55:16;;;;;;;7.68;1.35;;;7.50;99.90;;;;;;5135869;27;20039;-56
2021/03/17 08:58:05;;;;;;;5.53;1.33;;;7.90;99.90;;;;;;5135663;27;20071;-57
2021/03/17 09:01:01;;;;;;;7.55;1.25;;;8.20;99.80;;;;;;5135605;27;20300;-56
2021/03/17 09:03:32;;;;;;;7.78;1.25;;;8.50;98.60;;;;;;5051922;28;20049;-57
2021/03/17 09:06:17;;;;;;;13.00;2.88;;;8.50;98.40;;;;;;5052279;28;20041;-56
2021/03/17 09:08:50;;;;;;;8.63;1.52;;;8.50;97.80;;;;;;5052366;28;20068;-56
2021/03/17 09:11:31;;;;;;;11.40;1.52;;;8.90;97.40;;;;;;5051988;28;20040;-56
2021/03/17 09:14:05;;;;;;;5.70;1.30;;;8.70;97.40;;;;;;5052050;28;20040;-56
2021/03/17 09:16:36;;;;;;;10.00;1.60;;;8.70;98.00;;;;;;5051980;28;20044;-57
2021/03/17 09:19:14;;;;;;;13.88;1.30;;;8.80;97.60;;;;;;5051894;28;20051;-56
2021/03/17 09:21:44;;;;;;;9.85;1.83;;;8.80;98.10;;;;;;5052301;28;20049;-57
2021/03/17 09:24:32;;;;;;;11.50;1.90;;;9.20;98.20;;;;;;5051957;28;20067;-56
2021/03/17 09:27:06;;;;;;;10.40;1.85;;;9.10;97.10;;;;;;5051776;28;20482;-57
2021/03/17 09:29:32;;;;;;;7.82;2.35;;;9.00;97.20;;;;;;5051577;28;20175;-57
2021/03/17 09:32:00;;;;;;;11.73;1.60;;;8.70;96.30;;;;;;5051657;28;20056;-56
2021/03/17 09:34:33;;;;;;;9.40;2.28;;;8.50;96.60;;;;;;5051623;28;20097;-57
2021/03/17 09:37:10;;;;;;;8.80;1.63;;;8.40;95.50;;;;;;5051623;28;20124;-56
2021/03/17 09:39:37;;;;;;;8.27;1.70;;;8.40;95.90;;;;;;5085284;27;20055;-56
2021/03/17 09:42:04;;;;;;;14.38;1.45;;;8.40;96.20;;;;;;5134769;27;20039;-56
2021/03/17 09:44:30;;;;;;;12.07;1.45;;;8.40;96.60;;;;;;5134918;27;20039;-57
2021/03/17 09:46:56;;;;;;;7.78;1.50;;;8.30;96.30;;;;;;5134939;27;20100;-57
2021/03/17 09:49:24;;;;;;;7.32;1.27;;;8.20;96.80;;;;;;5134813;27;20145;-56
2021/03/17 09:51:52;;;;;;;8.70;1.63;;;8.30;96.20;;;;;;5134517;27;20047;-56
2021/03/17 09:54:24;;;;;;;9.52;1.52;;;8.40;97.10;;;;;;5134432;27;20095;-56
2021/03/17 09:56:51;;;;;;;7.85;1.65;;;8.30;97.10;;;;;;5134607;27;20067;-56
2021/03/17 09:59:32;;;;;;;11.73;1.40;;;8.40;97.10;;;;;;5134412;27;20046;-56
2021/03/17 10:01:58;;;;;;;13.60;2.42;;;8.30;96.50;;;;;;5134515;27;20091;-56
2021/03/17 10:04:35;;;;;;;9.43;1.73;;;8.20;96.30;;;;;;5134338;27;20117;-56
2021/03/17 10:07:06;;;;;;;7.15;1.40;;;8.00;96.40;;;;;;5134323;27;20031;-56
2021/03/17 10:09:34;;;;;;;12.73;1.95;;;8.00;96.40;;;;;;5134479;27;20191;-56
2021/03/17 10:12:08;;;;;;;11.93;1.80;;;8.20;96.10;;;;;;5134412;27;20043;-56
2021/03/17 10:14:36;;;;;;;10.02;1.55;;;8.50;95.90;;;;;;5134427;27;20079;-57
2021/03/17 10:17:06;;;;;;;10.80;1.92;;;8.80;95.60;;;;;;5134030;27;20134;-56
2021/03/17 10:19:34;;;;;;;8.05;1.02;;;8.70;94.90;;;;;;5134037;27;20050;-56
2021/03/17 10:22:01;;;;;;;10.52;1.30;;;8.50;93.80;;;;;;5133941;27;20069;-56
2021/03/17 10:24:33;;;;;;;8.43;1.70;;;8.70;93.60;;;;;;5134163;27;20049;-56
2021/03/17 10:27:01;;;;;;;14.05;1.58;;;8.60;93.20;;;;;;5133882;27;20099;-56
2021/03/17 10:29:27;;;;;;;6.10;1.05;;;8.60;93.40;;;;;;5133717;27;20144;-56
2021/03/17 10:31:56;;;;;;;8.05;1.38;;;8.50;92.10;;;;;;5133978;27;20054;-56
2021/03/17 10:34:27;;;;;;;6.95;1.10;;;8.30;91.80;;;;;;5133707;27;20051;-56
2021/03/17 10:36:59;;;;;;;10.10;1.20;;;8.20;92.10;;;;;;5133222;27;20122;-56
2021/03/17 10:39:29;;;;;;;4.88;1.35;;;8.40;92.00;;;;;;5133639;27;20120;-56
2021/03/17 10:41:55;;;;;;;6.03;1.20;;;8.50;92.90;;;;;;5133651;27;20051;-56
2021/03/17 10:44:24;;;;;;;7.93;1.13;;;8.70;93.20;;;;;;5133429;27;20113;-57
2021/03/17 10:47:08;;;;;;;5.18;1.25;;;8.70;93.70;;;;;;5133644;27;20039;-56
2021/03/17 10:49:45;;;;;;;6.88;1.67;;;8.70;91.70;;;;;;5133519;27;20070;-56
2021/03/17 10:52:11;;;;;;;5.80;1.02;;;8.80;91.90;;;;;;5133439;27;20145;-56
2021/03/17 10:54:43;;;;;;;4.97;1.17;;;8.80;92.30;;;;;;5133454;27;20072;-56
2021/03/17 10:57:17;;;;;;;5.97;1.00;;;8.70;92.80;;;;;;5133394;27;20442;-56
2021/03/17 10:59:42;;;;;;;6.45;1.30;;;8.60;91.40;;;;;;5133263;27;20513;-56
2021/03/17 11:02:26;;;;;;;9.98;1.20;;;8.60;91.70;;;;;;5133533;27;20062;-56
2021/03/17 11:05:06;;;;;;;6.65;1.23;;;8.50;90.50;;;;;;5133057;27;20114;-56
2021/03/17 11:07:52;;;;;;;8.57;1.50;;;8.40;91.30;;;;;;5133116;27;20438;-56
2021/03/17 11:10:46;;;;;;;4.53;0.93;;;8.40;93.30;;;;;;5133192;27;20096;-56
2021/03/17 11:13:11;;;;;;;10.55;1.77;;;8.50;92.40;;;;;;5133021;27;20037;-56
2021/03/17 11:15:49;;;;;;;5.80;1.58;;;8.70;92.60;;;;;;5132956;27;20039;-56
2021/03/17 11:18:24;;;;;;;6.47;0.95;;;8.80;93.20;;;;;;5133190;27;20051;-56
2021/03/17 11:20:51;;;;;;;5.15;0.98;;;8.80;91.10;;;;;;5133109;27;20040;-56
2021/03/17 11:23:17;;;;;;;5.47;1.13;;;9.00;90.90;;;;;;5133054;27;20043;-56
2021/03/17 11:25:44;;;;;;;7.43;1.25;;;9.00;91.00;;;;;;5132889;27;20046;-56
2021/03/17 11:28:18;;;;;;;5.88;1.85;;;9.10;90.70;;;;;;5132883;27;20122;-56
2021/03/17 11:31:02;;;;;;;9.77;1.40;;;8.90;89.60;;;;;;5133065;27;20049;-56
2021/03/17 11:33:28;;;;;;;7.25;1.20;;;9.00;90.60;;;;;;5132996;27;20047;-56
2021/03/17 11:35:58;;;;;;;3.90;0.75;;;9.10;89.70;;;;;;5132761;27;20400;-56
2021/03/17 11:38:28;;;;;;;6.93;1.30;;;9.10;90.30;;;;;;5132776;27;20078;-56
2021/03/17 11:40:57;;;;;;;5.03;1.00;;;9.30;88.30;;;;;;5132601;27;20088;-56
2021/03/17 11:43:25;;;;;;;6.28;0.93;;;9.10;87.00;;;;;;5133099;28;20050;-56
2021/03/17 11:45:53;;;;;;;6.25;1.08;;;8.80;87.20;;;;;;5132934;28;20050;-56
2021/03/17 11:48:20;;;;;;;8.07;0.95;;;9.00;88.40;;;;;;5134064;27;20046;-56
2021/03/17 11:50:49;;;;;;;7.00;1.52;;;9.20;90.00;;;;;;5137405;27;20119;-56
2021/03/17 11:53:17;;;;;;;6.38;1.45;;;9.30;90.00;;;;;;5137070;27;20065;-56
2021/03/17 11:55:44;;;;;;;5.57;1.10;;;9.50;89.70;;;;;;5137102;27;20115;-56
2021/03/17 11:58:10;;;;;;;4.03;1.30;;;9.50;89.00;;;;;;5136808;27;20031;-56
2021/03/17 12:00:36;;;;;;;7.75;1.23;;;9.60;90.50;;;;;;5136815;27;20051;-56
2021/03/17 12:03:02;;;;;;;6.25;2.00;;;9.30;89.80;;;;;;5136782;27;20054;-56
2021/03/17 12:05:28;;;;;;;7.57;1.60;;;9.40;90.40;;;;;;5136964;27;20102;-56
2021/03/17 12:07:54;;;;;;;11.80;1.67;;;9.40;90.90;;;;;;5136813;27;20047;-56
2021/03/17 12:10:20;;;;;;;9.70;1.15;;;9.40;90.40;;;;;;5136755;27;20039;-56
2021/03/17 12:12:47;;;;;;;8.95;1.00;;;9.50;91.30;;;;;;5136740;27;20067;-56
2021/03/17 12:15:16;;;;;;;7.70;1.20;;;9.60;91.40;;;;;;5136729;27;20066;-56
2021/03/17 12:17:42;;;;;;;7.82;1.35;;;9.50;91.50;;;;;;5136721;27;20035;-56
2021/03/17 12:20:10;;;;;;;7.75;1.67;;;9.50;92.00;;;;;;5136488;27;20036;-56
2021/03/17 12:22:36;;;;;;;2.50;0.80;;;9.50;91.10;;;;;;5136398;27;20488;-56
2021/03/17 12:25:04;;;;;;;10.15;1.73;;;9.60;90.80;;;;;;5136423;27;20073;-57
2021/03/17 12:27:31;;;;;;;7.97;1.93;;;9.40;91.60;;;;;;5136638;27;20038;-56
2021/03/17 12:29:56;;;;;;;7.78;1.30;;;9.50;91.70;;;;;;5136248;27;20281;-56
2021/03/17 12:32:22;;;;;;;10.45;1.98;;;9.60;91.40;;;;;;5136272;27;20050;-56
2021/03/17 12:34:48;;;;;;;7.05;1.90;;;9.50;90.90;;;;;;5136060;27;20042;-56
2021/03/17 12:37:14;;;;;;;7.13;1.10;;;9.60;91.60;;;;;;5136033;27;20043;-56
2021/03/17 12:39:40;;;;;;;6.18;1.60;;;9.80;91.40;;;;;;5135932;27;20037;-56
2021/03/17 12:42:07;;;;;;;5.93;1.88;;;9.80;91.60;;;;;;5136021;27;20047;-56
2021/03/17 12:44:35;;;;;;;5.82;1.30;;;9.90;91.80;;;;;;5135824;27;20035;-56
2021/03/17 12:47:01;;;;;;;9.00;1.40;;;10.00;92.30;;;;;;5136010;27;20035;-56
2021/03/17 12:49:28;;;;;;;6.07;1.10;;;10.10;92.50;;;;;;5135737;27;20050;-57
2021/03/17 12:51:54;;;;;;;7.18;1.77;;;9.80;91.70;;;;;;5135708;27;20046;-56
2021/03/17 12:54:20;;;;;;;7.75;1.60;;;9.70;90.80;;;;;;5136013;27;20046;-56
2021/03/17 12:56:46;;;;;;;5.60;0.80;;;9.70;91.50;;;;;;5135769;27;20058;-56
2021/03/17 12:59:12;;;;;;;10.93;1.40;;;9.60;92.30;;;;;;5134959;27;20039;-55
2021/03/17 13:01:38;;;;;;;7.38;1.40;;;9.60;91.60;;;;;;5135704;27;20125;-56
2021/03/17 13:04:04;;;;;;;7.25;1.38;;;9.60;92.40;;;;;;5135592;27;20460;-56
2021/03/17 13:06:30;;;;;;;11.43;1.63;;;9.40;91.60;;;;;;5135574;27;20114;-56
2021/03/17 13:09:01;;;;;;;6.25;0.90;;;9.50;92.40;;;;;;5135591;27;20134;-56